createdAt,value
2023-05-22T00:00:56.825Z,69.04
2023-05-22T00:02:59.681Z,69.04
2023-05-22T00:05:03.223Z,68.76
2023-05-22T00:07:06.618Z,68.90
2023-05-22T00:09:09.371Z,68.94
2023-05-22T00:11:13.490Z,68.43
2023-05-22T00:13:16.108Z,68.30
2023-05-22T00:15:18.734Z,68.83
2023-05-22T00:17:21.429Z,68.73
2023-05-22T00:19:24.183Z,68.40
2023-05-22T00:21:27.811Z,68.74
2023-05-22T00:23:30.410Z,68.94
2023-05-22T00:25:32.994Z,69.02
2023-05-22T00:27:36.936Z,68.99
2023-05-22T00:29:39.684Z,68.89
2023-05-22T00:31:42.264Z,68.58
2023-05-22T00:33:44.909Z,67.80
2023-05-22T00:35:47.596Z,69.08
2023-05-22T00:37:50.635Z,69.29
2023-05-22T00:39:53.215Z,69.34
2023-05-22T00:41:56.205Z,69.35
2023-05-22T00:44:00.184Z,69.20
2023-05-22T00:46:02.828Z,69.23
2023-05-22T00:48:06.116Z,68.86
2023-05-22T00:50:11.723Z,69.10
2023-05-22T00:52:17.295Z,68.73
2023-05-22T00:54:20.143Z,68.65
2023-05-22T00:56:23.389Z,68.99
2023-05-22T00:58:27.819Z,69.41
2023-05-22T01:00:34.231Z,69.17
2023-05-22T01:02:37.164Z,68.80
2023-05-22T01:04:40.209Z,68.86
2023-05-22T01:06:42.888Z,68.81
2023-05-22T01:08:46.033Z,68.49
2023-05-22T01:10:53.825Z,68.38
2023-05-22T01:13:03.916Z,68.54
2023-05-22T01:15:17.443Z,68.45
2023-05-22T01:17:28.962Z,68.82
2023-05-22T01:19:51.847Z,69.23
2023-05-22T01:22:08.818Z,69.20
2023-05-22T01:24:59.183Z,69.30
2023-05-22T01:27:28.420Z,69.15
2023-05-22T01:29:46.155Z,69.33
2023-05-22T01:31:51.720Z,69.10
2023-05-22T01:33:57.390Z,69.33
2023-05-22T01:36:03.447Z,68.60
2023-05-22T01:38:08.405Z,68.70
2023-05-22T01:40:12.654Z,68.28
2023-05-22T01:42:15.764Z,68.76
2023-05-22T01:44:18.371Z,68.85
2023-05-22T01:46:21.160Z,68.54
2023-05-22T01:48:25.253Z,68.58
2023-05-22T01:50:27.963Z,68.65
2023-05-22T01:52:37.475Z,68.38
2023-05-22T01:54:45.431Z,68.35
2023-05-22T01:56:55.773Z,68.68
2023-05-22T01:59:05.204Z,68.66
2023-05-22T02:01:09.935Z,68.54
2023-05-22T02:03:20.145Z,68.46
2023-05-22T02:05:25.960Z,68.58
2023-05-22T02:07:29.889Z,68.66
2023-05-22T02:09:33.153Z,68.58
2023-05-22T02:11:38.528Z,68.16
2023-05-22T02:13:41.300Z,67.99
2023-05-22T02:15:46.306Z,68.21
2023-05-22T02:17:49.529Z,68.23
2023-05-22T02:19:52.199Z,68.61
2023-05-22T02:21:56.133Z,68.62
2023-05-22T02:23:58.735Z,68.47
2023-05-22T02:26:01.858Z,68.80
2023-05-22T02:28:04.493Z,68.87
2023-05-22T02:30:08.495Z,69.12
2023-05-22T02:32:11.287Z,69.56
2023-05-22T02:34:13.967Z,69.87
2023-05-22T02:36:16.582Z,70.26
2023-05-22T02:38:20.515Z,70.83
2023-05-22T02:40:23.147Z,71.15
2023-05-22T02:42:25.876Z,71.42
2023-05-22T02:44:28.528Z,71.39
2023-05-22T02:46:31.112Z,71.57
2023-05-22T02:48:33.725Z,71.49
2023-05-22T02:50:36.340Z,71.42
2023-05-22T02:52:39.313Z,71.36
2023-05-22T02:54:43.303Z,71.52
2023-05-22T02:56:45.898Z,71.41
2023-05-22T02:58:48.574Z,71.24
2023-05-22T03:00:52.874Z,71.15
2023-05-22T03:02:55.569Z,71.13
2023-05-22T03:04:59.622Z,70.96
2023-05-22T03:07:02.724Z,70.76
2023-05-22T03:09:05.473Z,70.70
2023-05-22T03:11:09.427Z,70.53
2023-05-22T03:13:12.067Z,70.76
2023-05-22T03:15:14.706Z,70.77
2023-05-22T03:17:17.430Z,70.93
2023-05-22T03:19:20.320Z,71.30
2023-05-22T03:21:22.968Z,71.32
2023-05-22T03:23:25.639Z,71.31
2023-05-22T03:25:28.231Z,71.23
2023-05-22T03:27:32.174Z,69.95
2023-05-22T03:29:34.758Z,70.33
2023-05-22T03:31:37.418Z,70.59
2023-05-22T03:33:39.994Z,71.00
2023-05-22T03:35:44.506Z,71.25
2023-05-22T03:37:47.235Z,71.37
2023-05-22T03:39:49.872Z,71.58
2023-05-22T03:41:52.487Z,70.47
2023-05-22T03:43:57.257Z,71.06
2023-05-22T03:45:59.945Z,71.18
2023-05-22T03:48:02.664Z,71.10
2023-05-22T03:50:06.016Z,71.09
2023-05-22T03:52:11.115Z,71.04
2023-05-22T03:54:13.744Z,70.88
2023-05-22T03:56:16.490Z,71.18
2023-05-22T03:58:19.092Z,71.21
2023-05-22T04:00:24.249Z,71.21
2023-05-22T04:02:30.231Z,71.01
2023-05-22T04:04:38.508Z,71.09
2023-05-22T04:06:43.148Z,71.35
2023-05-22T04:08:46.069Z,71.26
2023-05-22T04:10:48.792Z,71.27
2023-05-22T04:12:51.731Z,71.38
2023-05-22T04:14:54.316Z,71.48
2023-05-22T04:16:58.293Z,71.68
2023-05-22T04:19:01.782Z,71.59
2023-05-22T04:21:08.022Z,71.50
2023-05-22T04:23:10.693Z,71.70
2023-05-22T04:25:13.366Z,71.90
2023-05-22T04:27:16.258Z,72.00
2023-05-22T04:29:20.371Z,72.03
2023-05-22T04:31:23.535Z,72.26
2023-05-22T04:33:28.963Z,72.19
2023-05-22T04:35:33.687Z,72.43
2023-05-22T04:37:36.421Z,72.73
2023-05-22T04:39:40.331Z,72.71
2023-05-22T04:41:42.964Z,72.81
2023-05-22T04:43:48.285Z,73.16
2023-05-22T04:45:51.532Z,73.13
2023-05-22T04:47:54.680Z,72.98
2023-05-22T04:49:58.723Z,73.14
2023-05-22T04:52:04.651Z,73.33
2023-05-22T04:54:07.329Z,73.63
2023-05-22T04:56:09.968Z,74.17
2023-05-22T04:58:12.659Z,74.40
2023-05-22T05:00:17.078Z,74.60
2023-05-22T05:02:19.930Z,74.62
2023-05-22T05:04:22.538Z,74.64
2023-05-22T05:06:27.331Z,74.88
2023-05-22T05:08:29.985Z,74.76
2023-05-22T05:10:32.558Z,73.92
2023-05-22T05:12:35.361Z,74.32
2023-05-22T05:14:37.961Z,74.68
2023-05-22T05:16:41.145Z,74.93
2023-05-22T05:18:43.929Z,74.81
2023-05-22T05:20:46.635Z,74.83
2023-05-22T05:22:51.070Z,74.77
2023-05-22T05:24:53.730Z,74.46
2023-05-22T05:26:56.366Z,73.95
2023-05-22T05:28:59.047Z,73.71
2023-05-22T05:31:01.838Z,73.80
2023-05-22T05:33:04.490Z,74.10
2023-05-22T05:35:07.870Z,74.17
2023-05-22T05:37:10.481Z,74.04
2023-05-22T05:39:14.506Z,73.65
2023-05-22T05:41:17.184Z,73.67
2023-05-22T05:43:20.204Z,73.65
2023-05-22T05:45:22.846Z,73.69
2023-05-22T05:47:26.210Z,73.41
2023-05-22T05:49:28.885Z,73.44
2023-05-22T05:51:31.819Z,73.48
2023-05-22T05:53:34.421Z,73.48
2023-05-22T05:55:38.360Z,73.52
2023-05-22T05:57:41.329Z,73.41
2023-05-22T05:59:43.943Z,73.30
2023-05-22T06:01:47.166Z,73.25
2023-05-22T06:03:50.230Z,74.11
2023-05-22T06:05:53.049Z,74.43
2023-05-22T06:07:58.195Z,74.58
2023-05-22T06:10:00.872Z,74.84
2023-05-22T06:12:05.176Z,75.03
2023-05-22T06:14:08.817Z,75.41
2023-05-22T06:16:12.220Z,75.64
2023-05-22T06:18:14.998Z,75.80
2023-05-22T06:20:17.705Z,76.11
2023-05-22T06:22:20.522Z,76.35
2023-05-22T06:24:23.111Z,76.60
2023-05-22T06:26:25.901Z,76.96
2023-05-22T06:28:29.920Z,77.33
2023-05-22T06:32:41.470Z,77.50
2023-05-22T06:34:46.766Z,77.41
2023-05-22T06:36:50.305Z,77.38
2023-05-22T06:38:54.591Z,77.31
2023-05-22T06:40:57.168Z,77.09
2023-05-22T06:42:59.835Z,76.75
2023-05-22T06:45:03.936Z,76.45
2023-05-22T06:47:06.939Z,76.72
2023-05-22T06:49:09.536Z,76.25
2023-05-22T06:51:12.784Z,75.56
2023-05-22T06:53:15.418Z,75.28
2023-05-22T06:55:18.246Z,74.83
2023-05-22T06:57:21.434Z,74.10
2023-05-22T06:59:24.037Z,74.10
2023-05-22T07:01:29.398Z,74.66
2023-05-22T07:03:32.038Z,73.83
2023-05-22T07:05:34.782Z,73.46
2023-05-22T07:07:37.497Z,73.16
2023-05-22T07:09:40.150Z,72.96
2023-05-22T07:11:43.952Z,72.70
2023-05-22T07:13:46.727Z,72.62
2023-05-22T07:15:49.319Z,72.35
2023-05-22T07:17:53.302Z,72.51
2023-05-22T07:19:55.914Z,72.40
2023-05-22T07:21:59.988Z,72.33
2023-05-22T07:24:08.044Z,72.75
2023-05-22T07:26:10.819Z,72.58
2023-05-22T07:28:13.429Z,72.90
2023-05-22T07:30:16.254Z,72.83
2023-05-22T07:32:18.830Z,73.08
2023-05-22T07:34:23.278Z,73.04
2023-05-22T07:36:25.986Z,73.84
2023-05-22T07:38:28.579Z,74.21
2023-05-22T07:40:31.269Z,73.84
2023-05-22T07:42:34.194Z,74.31
2023-05-22T07:44:36.845Z,74.14
2023-05-22T07:46:39.642Z,73.95
2023-05-22T07:48:42.299Z,73.96
2023-05-22T07:50:46.440Z,73.78
2023-05-22T07:52:49.167Z,75.09
2023-05-22T07:54:51.811Z,76.00
2023-05-22T07:56:56.041Z,76.83
2023-05-22T07:58:58.827Z,76.10
2023-05-22T08:01:01.813Z,76.03
2023-05-22T08:03:04.957Z,75.40
2023-05-22T08:05:09.365Z,74.99
2023-05-22T08:07:13.779Z,73.54
2023-05-22T08:09:16.418Z,73.30
2023-05-22T08:11:19.044Z,73.32
2023-05-22T08:13:21.645Z,73.19
2023-05-22T08:15:24.238Z,72.91
2023-05-22T08:17:26.916Z,72.85
2023-05-22T08:19:29.828Z,72.93
2023-05-22T08:21:34.553Z,72.81
2023-05-22T08:23:38.595Z,72.52
2023-05-22T08:25:41.253Z,72.44
2023-05-22T08:27:43.899Z,72.20
2023-05-22T08:29:46.506Z,72.52
2023-05-22T08:31:49.173Z,72.22
2023-05-22T08:33:51.861Z,72.30
2023-05-22T08:35:54.453Z,72.25
2023-05-22T08:37:57.075Z,71.88
2023-05-22T08:40:01.379Z,71.36
2023-05-22T08:42:04.236Z,71.40
2023-05-22T08:44:07.033Z,71.74
2023-05-22T08:46:10.975Z,71.54
2023-05-22T08:48:14.653Z,70.29
2023-05-22T08:50:19.093Z,69.13
2023-05-22T08:52:24.165Z,68.46
2023-05-22T08:54:27.707Z,67.76
2023-05-22T08:56:35.131Z,68.31
2023-05-22T08:58:39.120Z,68.84
2023-05-22T09:00:42.736Z,68.66
2023-05-22T09:02:46.272Z,69.54
2023-05-22T09:04:48.889Z,69.94
2023-05-22T09:06:51.613Z,69.84
2023-05-22T09:08:54.178Z,70.12
2023-05-22T09:10:56.883Z,69.90
2023-05-22T09:13:05.043Z,70.13
2023-05-22T09:15:10.924Z,70.01
2023-05-22T09:17:17.089Z,69.87
2023-05-22T09:19:19.969Z,69.58
2023-05-22T09:23:32.010Z,69.67
2023-05-22T09:25:34.675Z,70.05
2023-05-22T09:27:37.401Z,69.21
2023-05-22T09:29:52.354Z,68.63
2023-05-22T09:31:55.136Z,69.35
2023-05-22T09:33:57.927Z,69.27
2023-05-22T09:36:01.453Z,70.35
2023-05-22T09:38:04.988Z,68.32
2023-05-22T09:40:09.569Z,68.20
2023-05-22T09:42:14.937Z,68.95
2023-05-22T09:44:17.602Z,68.65
2023-05-22T09:46:21.618Z,67.78
2023-05-22T09:48:24.582Z,68.51
2023-05-22T09:50:27.249Z,68.25
2023-05-22T09:52:32.619Z,68.16
2023-05-22T09:54:35.901Z,67.65
2023-05-22T09:56:40.810Z,67.26
2023-05-22T09:58:45.871Z,67.47
2023-05-22T10:00:49.913Z,67.99
2023-05-22T10:03:03.352Z,67.84
2023-05-22T10:05:08.072Z,68.45
2023-05-22T10:07:12.197Z,66.86
2023-05-22T10:09:19.333Z,66.56
2023-05-22T10:11:23.664Z,66.95
2023-05-22T10:13:27.512Z,67.20
2023-05-22T10:15:30.917Z,67.75
2023-05-22T10:17:33.616Z,67.83
2023-05-22T10:19:41.763Z,66.52
2023-05-22T10:21:47.292Z,66.63
2023-05-22T10:23:51.658Z,66.83
2023-05-22T10:25:55.242Z,67.24
2023-05-22T10:27:59.262Z,67.00
2023-05-22T10:30:09.702Z,67.03
2023-05-22T10:32:19.534Z,67.56
2023-05-22T10:34:29.354Z,69.17
2023-05-22T10:36:48.279Z,68.76
2023-05-22T10:39:11.152Z,67.33
2023-05-22T10:41:14.586Z,66.11
2023-05-22T10:43:17.298Z,66.16
2023-05-22T10:45:20.167Z,66.54
2023-05-22T10:47:22.879Z,67.22
2023-05-22T10:49:26.086Z,66.45
2023-05-22T10:51:28.879Z,66.21
2023-05-22T10:53:34.173Z,65.57
2023-05-22T10:55:48.177Z,65.09
2023-05-22T10:57:50.765Z,65.01
2023-05-22T11:00:09.519Z,64.53
2023-05-22T11:02:22.618Z,64.93
2023-05-22T11:04:26.475Z,65.52
2023-05-22T11:06:36.581Z,65.39
2023-05-22T11:08:40.972Z,65.36
2023-05-22T11:10:53.280Z,65.05
2023-05-22T11:13:04.333Z,64.50
2023-05-22T11:15:08.463Z,64.62
2023-05-22T11:17:13.507Z,65.11
2023-05-22T11:19:23.248Z,66.20
2023-05-22T11:21:31.096Z,65.11
2023-05-22T11:23:38.474Z,64.60
2023-05-22T11:25:42.528Z,65.06
2023-05-22T11:27:46.051Z,64.91
2023-05-22T11:29:49.746Z,63.41
2023-05-22T11:31:52.528Z,62.99
2023-05-22T11:33:55.243Z,63.38
2023-05-22T11:35:57.960Z,66.88
2023-05-22T11:38:00.842Z,65.37
2023-05-22T11:40:05.880Z,64.00
2023-05-22T11:42:09.878Z,64.08
2023-05-22T11:44:12.442Z,62.98
2023-05-22T11:46:15.296Z,63.03
2023-05-22T11:48:20.754Z,62.37
2023-05-22T11:50:33.984Z,61.96
2023-05-22T11:52:45.255Z,61.79
2023-05-22T11:54:48.167Z,61.97
2023-05-22T11:56:50.788Z,63.18
2023-05-22T11:58:54.711Z,62.40
2023-05-22T12:01:02.046Z,61.90
2023-05-22T12:03:04.763Z,61.34
2023-05-22T12:05:10.183Z,60.89
2023-05-22T12:07:13.058Z,58.55
2023-05-22T12:09:15.851Z,59.20
2023-05-22T12:11:18.636Z,59.86
2023-05-22T12:13:25.651Z,59.07
2023-05-22T12:15:29.663Z,58.82
2023-05-22T12:17:32.623Z,59.41
2023-05-22T12:19:35.323Z,60.08
2023-05-22T12:21:39.259Z,60.15
2023-05-22T12:23:49.896Z,58.77
2023-05-22T12:26:00.125Z,58.13
2023-05-22T12:28:02.726Z,57.63
2023-05-22T12:30:10.692Z,57.69
2023-05-22T12:32:14.818Z,56.63
2023-05-22T12:34:19.458Z,56.62
2023-05-22T12:36:22.263Z,55.14
2023-05-22T12:38:26.244Z,53.69
2023-05-22T12:40:28.827Z,54.00
2023-05-22T12:42:31.499Z,52.61
2023-05-22T12:44:34.110Z,52.76
2023-05-22T12:46:36.905Z,53.45
2023-05-22T12:48:40.879Z,53.99
2023-05-22T12:50:43.909Z,55.49
2023-05-22T12:52:46.516Z,55.83
2023-05-22T12:54:49.096Z,55.73
2023-05-22T12:56:51.670Z,55.65
2023-05-22T12:58:54.399Z,55.27
2023-05-22T13:00:57.162Z,54.11
2023-05-22T13:02:59.950Z,51.95
2023-05-22T13:05:04.249Z,52.48
2023-05-22T13:07:07.145Z,51.81
2023-05-22T13:09:09.790Z,51.69
2023-05-22T13:11:13.180Z,48.51
2023-05-22T13:13:15.799Z,48.63
2023-05-22T13:15:18.555Z,49.53
2023-05-22T13:17:21.134Z,50.82
2023-05-22T13:19:23.801Z,50.33
2023-05-22T13:21:27.778Z,49.23
2023-05-22T13:23:30.395Z,49.08
2023-05-22T13:25:33.050Z,47.68
2023-05-22T13:27:35.781Z,45.64
2023-05-22T13:29:38.413Z,45.71
2023-05-22T13:31:41.022Z,47.28
2023-05-22T13:33:43.616Z,47.35
2023-05-22T13:35:46.239Z,44.98
2023-05-22T13:37:52.755Z,44.78
2023-05-22T13:39:55.382Z,44.20
2023-05-22T13:41:58.053Z,44.12
2023-05-22T13:44:00.717Z,42.96
2023-05-22T13:46:04.464Z,43.27
2023-05-22T13:48:07.089Z,42.56
2023-05-22T13:50:10.470Z,42.29
2023-05-22T13:52:13.060Z,42.02
2023-05-22T13:54:17.008Z,42.71
2023-05-22T13:56:19.591Z,48.11
2023-05-22T13:58:22.177Z,50.05
2023-05-22T14:00:24.942Z,51.13
2023-05-22T14:02:27.646Z,52.10
2023-05-22T14:04:30.354Z,53.23
2023-05-22T14:06:33.097Z,54.50
2023-05-22T14:08:35.843Z,54.31
2023-05-22T14:10:39.812Z,54.25
2023-05-22T14:12:42.435Z,54.10
2023-05-22T14:14:45.057Z,55.06
2023-05-22T14:16:47.711Z,56.76
2023-05-22T14:18:50.476Z,59.64
2023-05-22T14:20:53.112Z,59.91
2023-05-22T14:22:57.912Z,64.94
2023-05-22T14:25:01.611Z,70.59
2023-05-22T14:27:06.119Z,74.75
2023-05-22T14:29:08.752Z,73.74
2023-05-22T14:31:11.428Z,75.01
2023-05-22T14:33:14.331Z,75.00
2023-05-22T14:35:17.453Z,74.99
2023-05-22T14:37:21.352Z,74.03
2023-05-22T14:39:24.665Z,73.70
2023-05-22T14:41:27.228Z,72.98
2023-05-22T14:43:31.269Z,72.13
2023-05-22T14:45:33.892Z,70.92
2023-05-22T14:47:36.515Z,70.91
2023-05-22T14:49:39.160Z,70.58
2023-05-22T14:51:41.838Z,69.97
2023-05-22T14:53:44.581Z,69.60
2023-05-22T14:55:47.250Z,69.98
2023-05-22T14:57:49.811Z,69.61
2023-05-22T14:59:53.751Z,70.53
2023-05-22T15:01:56.383Z,71.36
2023-05-22T15:03:58.970Z,73.11
2023-05-22T15:06:01.563Z,75.53
2023-05-22T15:08:05.262Z,76.81
2023-05-22T15:10:09.309Z,79.00
2023-05-22T15:12:14.324Z,80.37
2023-05-22T15:14:16.975Z,79.99
2023-05-22T15:16:22.266Z,79.99
2023-05-22T15:18:26.482Z,80.30
2023-05-22T15:20:29.448Z,80.26
2023-05-22T15:22:32.050Z,79.95
2023-05-22T15:24:34.695Z,80.37
2023-05-22T15:26:37.308Z,79.98
2023-05-22T15:28:39.927Z,79.99
2023-05-22T15:30:43.593Z,80.29
2023-05-22T15:32:47.587Z,80.91
2023-05-22T15:34:50.240Z,81.05
2023-05-22T15:36:52.878Z,80.55
2023-05-22T15:38:55.557Z,80.70
2023-05-22T15:40:58.144Z,81.24
2023-05-22T15:43:03.832Z,82.24
2023-05-22T15:45:07.590Z,84.36
2023-05-22T15:47:10.177Z,85.18
2023-05-22T15:49:14.112Z,84.82
2023-05-22T15:51:16.727Z,84.51
2023-05-22T15:53:19.342Z,82.58
2023-05-22T15:55:22.160Z,82.19
2023-05-22T15:57:24.768Z,82.46
2023-05-22T15:59:27.362Z,82.18
2023-05-22T16:01:30.007Z,80.34
2023-05-22T16:03:32.995Z,78.92
2023-05-22T16:05:38.536Z,78.93
2023-05-22T16:07:41.224Z,78.94
2023-05-22T16:09:44.052Z,79.69
2023-05-22T16:11:46.806Z,80.53
2023-05-22T16:13:49.382Z,81.32
2023-05-22T16:15:52.019Z,81.69
2023-05-22T16:17:54.869Z,82.11
2023-05-22T16:19:57.488Z,82.61
2023-05-22T16:22:01.945Z,83.58
2023-05-22T16:24:06.441Z,83.89
2023-05-22T16:26:09.221Z,83.83
2023-05-22T16:28:12.360Z,83.52
2023-05-22T16:30:16.700Z,83.31
2023-05-22T16:32:19.817Z,83.34
2023-05-22T16:34:22.466Z,83.44
2023-05-22T16:36:27.135Z,82.84
2023-05-22T16:38:31.295Z,81.31
2023-05-22T16:40:33.880Z,79.22
2023-05-22T16:42:36.875Z,78.56
2023-05-22T16:44:39.445Z,79.56
2023-05-22T16:46:42.096Z,79.53
2023-05-22T16:48:44.830Z,79.54
2023-05-22T16:50:47.448Z,79.56
2023-05-22T16:52:50.070Z,79.88
2023-05-22T16:54:54.185Z,80.19
2023-05-22T16:56:56.808Z,80.56
2023-05-22T16:58:59.531Z,79.71
2023-05-22T17:01:02.421Z,80.16
2023-05-22T17:03:06.636Z,80.22
2023-05-22T17:05:09.626Z,79.90
2023-05-22T17:07:12.257Z,79.96
2023-05-22T17:09:14.867Z,80.16
2023-05-22T17:11:18.860Z,80.24
2023-05-22T17:13:21.595Z,80.60
2023-05-22T17:15:24.216Z,80.63
2023-05-22T17:17:26.983Z,80.88
2023-05-22T17:19:29.656Z,81.06
2023-05-22T17:21:32.751Z,81.08
2023-05-22T17:23:37.032Z,81.37
2023-05-22T17:25:39.770Z,81.85
2023-05-22T17:27:43.890Z,81.76
2023-05-22T17:29:46.512Z,81.16
2023-05-22T17:31:49.157Z,79.73
2023-05-22T17:33:51.774Z,79.75
2023-05-22T17:35:54.420Z,80.19
2023-05-22T17:37:57.045Z,81.73
2023-05-22T17:39:59.650Z,81.42
2023-05-22T17:42:02.297Z,81.77
2023-05-22T17:44:06.285Z,81.88
2023-05-22T17:46:09.315Z,81.78
2023-05-22T17:48:14.541Z,81.86
2023-05-22T17:50:17.533Z,81.69
2023-05-22T17:52:20.265Z,81.01
2023-05-22T17:54:22.865Z,80.15
2023-05-22T17:56:26.639Z,80.36
2023-05-22T17:58:29.222Z,80.68
2023-05-22T18:00:33.150Z,80.66
2023-05-22T18:02:35.875Z,81.05
2023-05-22T18:04:38.455Z,81.21
2023-05-22T18:06:41.037Z,81.55
2023-05-22T18:08:43.604Z,81.64
2023-05-22T18:10:46.230Z,81.98
2023-05-22T18:12:48.811Z,82.15
2023-05-22T18:14:51.409Z,81.99
2023-05-22T18:16:55.555Z,81.42
2023-05-22T18:18:58.234Z,79.33
2023-05-22T18:21:00.935Z,79.53
2023-05-22T18:23:03.650Z,79.42
2023-05-22T18:25:07.558Z,79.50
2023-05-22T18:27:10.210Z,79.75
2023-05-22T18:29:13.722Z,79.65
2023-05-22T18:33:21.362Z,79.72
2023-05-22T18:35:23.982Z,80.29
2023-05-22T18:37:26.613Z,81.55
2023-05-22T18:39:29.182Z,81.66
2023-05-22T18:41:31.742Z,81.73
2023-05-22T18:43:34.360Z,81.70
2023-05-22T18:45:37.013Z,82.19
2023-05-22T18:47:39.638Z,82.44
2023-05-22T18:49:43.676Z,82.38
2023-05-22T18:51:46.324Z,82.62
2023-05-22T18:53:49.153Z,82.41
2023-05-22T18:55:52.214Z,82.42
2023-05-22T18:57:54.835Z,81.95
2023-05-22T18:59:57.462Z,81.56
2023-05-22T19:02:00.159Z,81.55
2023-05-22T19:04:02.889Z,81.42
2023-05-22T19:06:07.677Z,81.43
2023-05-22T19:08:10.287Z,81.13
2023-05-22T19:10:12.983Z,81.01
2023-05-22T19:12:18.366Z,80.89
2023-05-22T19:14:20.973Z,81.12
2023-05-22T19:16:23.590Z,81.25
2023-05-22T19:18:27.370Z,81.38
2023-05-22T19:20:29.977Z,81.44
2023-05-22T19:22:34.126Z,81.14
2023-05-22T19:24:37.088Z,81.45
2023-05-22T19:26:40.683Z,81.63
2023-05-22T19:28:43.336Z,81.72
2023-05-22T19:30:46.027Z,81.91
2023-05-22T19:32:49.597Z,81.95
2023-05-22T19:34:52.232Z,82.21
2023-05-22T19:36:57.548Z,82.34
2023-05-22T19:39:01.675Z,82.52
2023-05-22T19:41:04.276Z,82.67
2023-05-22T19:43:07.010Z,82.77
2023-05-22T19:45:10.387Z,82.52
2023-05-22T19:47:12.972Z,82.40
2023-05-22T19:49:15.581Z,82.72
2023-05-22T19:51:18.225Z,82.69
2023-05-22T19:53:21.212Z,82.93
2023-05-22T19:55:25.680Z,83.13
2023-05-22T19:57:29.206Z,83.38
2023-05-22T19:59:32.305Z,83.59
2023-05-22T20:01:35.966Z,83.56
2023-05-22T20:03:40.030Z,83.53
2023-05-22T20:05:42.772Z,83.21
2023-05-22T20:07:47.001Z,83.26
2023-05-22T20:09:49.563Z,83.25
2023-05-22T20:11:53.493Z,83.19
2023-05-22T20:13:56.189Z,83.32
2023-05-22T20:16:03.412Z,82.96
2023-05-22T20:18:06.814Z,82.70
2023-05-22T20:20:10.423Z,82.79
2023-05-22T20:22:13.025Z,82.30
2023-05-22T20:24:18.840Z,82.33
2023-05-22T20:26:21.571Z,82.21
2023-05-22T20:28:26.546Z,82.32
2023-05-22T20:30:29.102Z,81.98
2023-05-22T20:32:32.332Z,81.96
2023-05-22T20:34:34.976Z,81.98
2023-05-22T20:36:37.618Z,80.80
2023-05-22T20:38:42.471Z,81.57
2023-05-22T20:40:46.495Z,82.09
2023-05-22T20:42:49.169Z,82.28
2023-05-22T20:44:53.525Z,82.11
2023-05-22T20:46:56.171Z,82.22
2023-05-22T20:48:59.451Z,81.98
2023-05-22T20:51:02.032Z,81.93
2023-05-22T20:53:06.286Z,81.13
2023-05-22T20:55:09.666Z,81.18
2023-05-22T20:57:12.247Z,80.99
2023-05-22T20:59:14.855Z,81.01
2023-05-22T21:01:18.863Z,80.66
2023-05-22T21:03:23.006Z,80.50
2023-05-22T21:05:26.759Z,80.09
2023-05-22T21:07:29.349Z,79.45
2023-05-22T21:09:32.055Z,79.69
2023-05-22T21:11:34.692Z,79.90
2023-05-22T21:13:37.826Z,79.76
2023-05-22T21:15:40.418Z,79.90
2023-05-22T21:17:44.358Z,79.73
2023-05-22T21:19:47.182Z,79.12
2023-05-22T21:21:49.800Z,79.25
2023-05-22T21:23:52.516Z,78.94
2023-05-22T21:25:55.119Z,78.78
2023-05-22T21:27:57.759Z,78.45
2023-05-22T21:30:00.468Z,78.70
2023-05-22T21:32:03.058Z,78.75
2023-05-22T21:34:07.073Z,78.27
2023-05-22T21:36:09.693Z,78.34
2023-05-22T21:38:12.345Z,78.22
2023-05-22T21:40:14.948Z,78.34
2023-05-22T21:42:17.557Z,78.18
2023-05-22T21:44:20.127Z,78.28
2023-05-22T21:46:23.462Z,78.02
2023-05-22T21:48:26.097Z,77.53
2023-05-22T21:50:30.676Z,77.78
2023-05-22T21:52:33.277Z,78.27
2023-05-22T21:54:35.857Z,78.89
2023-05-22T21:56:39.003Z,78.72
2023-05-22T21:58:41.958Z,78.66
2023-05-22T22:00:44.659Z,78.57
2023-05-22T22:02:47.391Z,78.77
2023-05-22T22:04:50.105Z,78.38
2023-05-22T22:06:54.109Z,78.68
2023-05-22T22:08:58.727Z,78.53
2023-05-22T22:11:01.793Z,78.24
2023-05-22T22:13:04.421Z,78.33
2023-05-22T22:15:08.006Z,78.73
2023-05-22T22:17:10.630Z,78.90
2023-05-22T22:19:13.638Z,78.86
2023-05-22T22:21:16.446Z,78.65
2023-05-22T22:23:21.744Z,78.70
2023-05-22T22:25:24.318Z,78.68
2023-05-22T22:27:30.063Z,78.30
2023-05-22T22:29:32.676Z,78.61
2023-05-22T22:31:38.726Z,78.33
2023-05-22T22:33:41.376Z,78.30
2023-05-22T22:35:44.090Z,78.43
2023-05-22T22:37:47.049Z,78.13
2023-05-22T22:39:50.994Z,77.96
2023-05-22T22:41:53.591Z,78.05
2023-05-22T22:43:56.174Z,78.10
2023-05-22T22:45:58.843Z,78.05
2023-05-22T22:48:01.591Z,77.79
2023-05-22T22:50:04.585Z,77.72
2023-05-22T22:52:07.493Z,77.81
2023-05-22T22:54:10.691Z,77.54
2023-05-22T22:56:14.760Z,77.51
2023-05-22T22:58:18.698Z,77.49
2023-05-22T23:00:21.392Z,77.48
2023-05-22T23:02:24.018Z,77.38
2023-05-22T23:04:28.070Z,77.49
2023-05-22T23:06:33.024Z,77.48
2023-05-22T23:08:35.688Z,77.19
2023-05-22T23:10:38.309Z,77.42
2023-05-22T23:12:42.455Z,77.42
2023-05-22T23:14:45.618Z,77.83
2023-05-22T23:16:48.323Z,78.24
2023-05-22T23:18:50.910Z,78.26
2023-05-22T23:20:53.719Z,77.93
2023-05-22T23:22:56.277Z,77.99
2023-05-22T23:24:58.878Z,78.06
2023-05-22T23:27:01.803Z,77.54
2023-05-22T23:29:06.464Z,77.42
2023-05-22T23:31:09.523Z,77.77
2023-05-22T23:33:12.552Z,77.50
2023-05-22T23:35:15.199Z,78.05
2023-05-22T23:37:17.811Z,78.02
2023-05-22T23:39:20.419Z,77.75
2023-05-22T23:41:24.425Z,77.37
2023-05-22T23:43:27.051Z,77.59
2023-05-22T23:45:31.021Z,77.62
2023-05-22T23:47:33.672Z,77.58
2023-05-22T23:49:36.448Z,77.44
2023-05-22T23:51:39.032Z,77.19
2023-05-22T23:53:41.855Z,77.06
2023-05-22T23:55:44.470Z,76.17
2023-05-22T23:57:47.046Z,76.77
2023-05-22T23:59:49.824Z,76.80
